Aztec, New Mexico
Current Conditions -  °F | °C
As of 11:53 PM on Friday 31 Oct 2014 (Local Time) from KFMN Reporting Station
Overcast Overcast  
Wind Chill: 58°   Ceiling: 7500
Heat Index: 58°   Visibility: 10mi
Dew Point: 36°   Wind: 13mph
Humidity: 44%   Direction: 100°E
Pressure: 30.14"   Gusts: NA
Location:  36.83°N, 107.99°W
Report Text: KFMN 010553Z AUTO 10011KT 10SM OVC075 14/02 A3014 RMK AO2 SLP167 60000 T01440022 10194 20139 53002
Loading
Personal Weather Stations






























Interactive Weather Map
Tropical Storm Tracking
New forecast layout! Learn more

10-Day Weather Forecast

Advertisements
Track Severe Weather on mobile